createdAt,value
2023-05-25T00:04:33.729Z,3.42
2023-05-25T00:27:15.419Z,3.19
2023-05-25T00:29:16.775Z,3.02
2023-05-25T00:31:43.386Z,2.54
2023-05-25T00:44:41.836Z,3.15
2023-05-25T00:47:26.118Z,3.18
2023-05-25T00:49:52.804Z,3.19
2023-05-25T00:52:19.545Z,3.25
2023-05-25T00:54:48.101Z,3.14
2023-05-25T00:57:17.658Z,3.19
2023-05-25T01:00:25.240Z,3.07
2023-05-25T01:03:40.774Z,3.03
2023-05-25T01:10:06.144Z,2.87
2023-05-25T01:26:47.037Z,2.95
2023-05-25T01:29:46.575Z,2.94
2023-05-25T01:33:07.879Z,2.80
2023-05-25T01:39:15.611Z,2.89
2023-05-25T01:52:56.267Z,3.00
2023-05-25T01:55:36.297Z,3.04
2023-05-25T01:58:28.299Z,2.94
2023-05-25T02:05:29.425Z,2.90
2023-05-25T02:14:59.323Z,3.15
2023-05-25T02:17:53.281Z,2.95
2023-05-25T02:21:02.470Z,3.17
2023-05-25T02:23:39.259Z,3.14
2023-05-25T02:26:49.679Z,2.96
2023-05-25T02:29:54.879Z,3.11
2023-05-25T02:33:18.107Z,2.72
2023-05-25T02:49:59.958Z,2.43
2023-05-25T02:55:40.712Z,2.72
2023-05-25T02:59:03.985Z,2.72
2023-05-25T03:07:49.567Z,2.38
2023-05-25T03:14:15.358Z,2.59
2023-05-25T03:16:49.634Z,2.34
2023-05-25T03:22:43.989Z,2.55
2023-05-25T03:32:19.906Z,2.93
2023-05-25T03:34:46.612Z,3.06
2023-05-25T03:38:04.941Z,3.16
2023-05-25T03:40:42.372Z,3.23
2023-05-25T03:43:52.920Z,3.15
2023-05-25T03:46:45.877Z,3.25
2023-05-25T03:49:45.175Z,3.18
2023-05-25T03:52:31.861Z,3.34
2023-05-25T03:55:34.437Z,3.20
2023-05-25T03:59:32.746Z,3.31
2023-05-25T04:05:36.432Z,3.04
2023-05-25T04:08:08.679Z,3.41
2023-05-25T04:10:38.238Z,3.40
2023-05-25T04:13:04.902Z,3.50
2023-05-25T04:15:31.762Z,3.66
2023-05-25T04:18:08.900Z,3.71
2023-05-25T04:20:36.000Z,3.87
2023-05-25T04:23:03.064Z,3.70
2023-05-25T04:25:29.970Z,3.92
2023-05-25T04:27:58.027Z,3.81
2023-05-25T04:30:43.395Z,3.75
2023-05-25T04:33:29.882Z,4.11
2023-05-25T04:36:02.262Z,4.10
2023-05-25T04:38:30.826Z,4.47
2023-05-25T04:41:02.210Z,4.78
2023-05-25T04:43:30.043Z,4.56
2023-05-25T04:45:59.755Z,4.78
2023-05-25T04:48:32.659Z,4.88
2023-05-25T04:51:03.054Z,5.20
2023-05-25T04:53:32.367Z,5.15
2023-05-25T04:55:59.076Z,5.67
2023-05-25T04:58:25.693Z,6.03
2023-05-25T05:00:52.960Z,6.22
2023-05-25T05:03:19.734Z,6.34
2023-05-25T05:05:46.939Z,6.10
2023-05-25T05:08:19.241Z,6.60
2023-05-25T05:10:46.042Z,6.50
2023-05-25T05:13:14.087Z,6.92
2023-05-25T05:15:41.088Z,7.08
2023-05-25T05:18:08.745Z,7.00
2023-05-25T05:20:37.455Z,6.87
2023-05-25T05:23:04.114Z,7.66
2023-05-25T05:25:30.841Z,7.28
2023-05-25T05:27:57.664Z,6.86
2023-05-25T05:30:28.711Z,7.56
2023-05-25T05:32:56.270Z,7.35
2023-05-25T05:35:27.096Z,7.62
2023-05-25T05:38:03.009Z,7.64
2023-05-25T05:40:29.689Z,7.73
2023-05-25T05:42:56.457Z,8.07
2023-05-25T05:45:23.258Z,8.56
2023-05-25T05:47:50.126Z,8.82
2023-05-25T05:50:17.364Z,9.02
2023-05-25T05:52:44.219Z,9.17
2023-05-25T05:55:11.191Z,8.77
2023-05-25T05:57:40.085Z,8.95
2023-05-25T06:00:07.460Z,9.69
2023-05-25T06:02:42.233Z,10.66
2023-05-25T06:05:14.434Z,10.87
2023-05-25T06:07:42.755Z,11.83
2023-05-25T06:10:09.799Z,11.93
2023-05-25T06:12:36.659Z,12.79
2023-05-25T06:15:03.709Z,13.06
2023-05-25T06:17:30.539Z,13.18
2023-05-25T06:19:57.277Z,13.41
2023-05-25T06:22:27.856Z,13.56
2023-05-25T06:24:56.143Z,12.54
2023-05-25T06:27:23.565Z,12.50
2023-05-25T06:29:50.387Z,11.57
2023-05-25T06:32:17.225Z,12.03
2023-05-25T06:34:43.941Z,12.63
2023-05-25T06:37:10.915Z,12.46
2023-05-25T06:39:38.930Z,12.24
2023-05-25T06:42:06.021Z,12.11
2023-05-25T06:44:36.837Z,12.40
2023-05-25T06:47:08.260Z,12.99
2023-05-25T06:49:34.945Z,13.65
2023-05-25T06:52:01.771Z,14.07
2023-05-25T06:54:28.380Z,14.00
2023-05-25T06:56:55.048Z,14.33
2023-05-25T06:59:21.615Z,14.45
2023-05-25T07:01:48.909Z,15.21
2023-05-25T07:04:18.133Z,14.40
2023-05-25T07:06:44.737Z,15.34
2023-05-25T07:09:12.814Z,16.26
2023-05-25T07:11:39.387Z,16.49
2023-05-25T07:14:06.119Z,14.48
2023-05-25T07:16:33.197Z,14.99
2023-05-25T07:19:00.572Z,16.08
2023-05-25T07:21:27.789Z,16.14
2023-05-25T07:23:54.375Z,16.43
2023-05-25T07:26:23.036Z,17.07
2023-05-25T07:28:49.639Z,17.82
2023-05-25T07:31:16.531Z,19.41
2023-05-25T07:33:43.710Z,20.47
2023-05-25T07:36:10.588Z,20.17
2023-05-25T07:38:37.282Z,18.94
2023-05-25T07:41:06.433Z,17.61
2023-05-25T07:43:33.184Z,19.65
2023-05-25T07:46:01.914Z,20.21
2023-05-25T07:48:28.484Z,18.91
2023-05-25T07:50:55.182Z,17.81
2023-05-25T07:53:21.866Z,18.67
2023-05-25T07:55:48.718Z,18.33
2023-05-25T07:58:15.643Z,19.72
2023-05-25T08:00:43.761Z,20.50
2023-05-25T08:03:11.114Z,21.13
2023-05-25T08:05:37.939Z,20.49
2023-05-25T08:08:04.610Z,21.55
2023-05-25T08:10:34.642Z,23.02
2023-05-25T08:13:01.317Z,22.86
2023-05-25T08:15:27.966Z,22.25
2023-05-25T08:17:56.587Z,22.71
2023-05-25T08:20:24.931Z,21.66
2023-05-25T08:22:53.537Z,23.85
2023-05-25T08:25:20.796Z,22.35
2023-05-25T08:27:47.676Z,22.02
2023-05-25T08:30:14.414Z,20.58
2023-05-25T08:32:41.122Z,21.83
2023-05-25T08:35:08.187Z,23.27
2023-05-25T08:37:35.599Z,22.53
2023-05-25T08:40:02.717Z,22.86
2023-05-25T08:42:29.971Z,21.26
2023-05-25T08:44:56.937Z,22.91
2023-05-25T08:47:24.027Z,21.22
2023-05-25T08:49:52.808Z,22.51
2023-05-25T08:52:23.507Z,22.12
2023-05-25T08:54:53.993Z,22.08
2023-05-25T08:57:29.269Z,22.89
2023-05-25T09:00:12.183Z,23.67
2023-05-25T09:02:58.124Z,21.97
2023-05-25T09:05:25.475Z,23.18
2023-05-25T09:07:54.760Z,23.46
2023-05-25T09:10:23.830Z,24.01
2023-05-25T09:12:52.075Z,25.11
2023-05-25T09:15:19.071Z,26.07
2023-05-25T09:17:45.762Z,24.96
2023-05-25T09:20:15.780Z,24.70
2023-05-25T09:22:43.981Z,27.31
2023-05-25T09:25:11.843Z,22.93
2023-05-25T09:27:38.852Z,21.89
2023-05-25T09:30:06.637Z,23.03
2023-05-25T09:32:33.621Z,22.62
2023-05-25T09:35:11.186Z,21.89
2023-05-25T09:37:37.951Z,20.35
2023-05-25T09:40:06.387Z,19.81
2023-05-25T09:42:37.074Z,19.56
2023-05-25T09:45:04.951Z,19.23
2023-05-25T09:47:31.800Z,19.67
2023-05-25T09:49:59.212Z,19.37
2023-05-25T09:52:26.087Z,18.74
2023-05-25T09:54:52.679Z,17.78
2023-05-25T09:57:20.452Z,17.80
2023-05-25T09:59:47.324Z,17.12
2023-05-25T10:02:15.474Z,17.94
2023-05-25T10:04:42.220Z,17.77
2023-05-25T10:07:09.477Z,17.14
2023-05-25T10:09:41.733Z,16.80
2023-05-25T10:12:09.210Z,16.91
2023-05-25T10:14:40.569Z,16.81
2023-05-25T10:17:10.226Z,16.45
2023-05-25T10:19:54.970Z,16.63
2023-05-25T10:22:51.211Z,16.23
2023-05-25T10:25:48.692Z,16.47
2023-05-25T10:28:39.456Z,16.09
2023-05-25T10:31:07.177Z,16.29
2023-05-25T10:33:34.378Z,16.13
2023-05-25T10:36:10.619Z,15.83
2023-05-25T10:38:40.056Z,15.86
2023-05-25T10:41:09.546Z,16.26
2023-05-25T10:43:36.625Z,16.19
2023-05-25T10:46:04.274Z,15.90
2023-05-25T10:48:48.484Z,16.38
2023-05-25T10:51:15.297Z,16.72
2023-05-25T10:53:46.252Z,16.61
2023-05-25T10:56:14.316Z,16.66
2023-05-25T10:58:44.022Z,16.54
2023-05-25T11:01:13.261Z,16.62
2023-05-25T11:03:53.684Z,16.33
2023-05-25T11:06:22.216Z,15.93
2023-05-25T11:08:56.480Z,15.40
2023-05-25T11:11:43.015Z,15.11
2023-05-25T11:14:23.732Z,15.45
2023-05-25T11:17:10.314Z,15.49
2023-05-25T11:19:52.165Z,16.04
2023-05-25T11:22:23.269Z,15.80
2023-05-25T11:24:53.846Z,15.84
2023-05-25T11:27:45.660Z,15.38
2023-05-25T11:30:13.365Z,15.42
2023-05-25T11:32:49.038Z,15.93
2023-05-25T11:35:16.031Z,16.38
2023-05-25T11:37:50.750Z,16.24
2023-05-25T11:40:17.415Z,16.17
2023-05-25T11:42:48.288Z,16.33
2023-05-25T11:45:15.010Z,15.79
2023-05-25T11:47:41.778Z,15.83
2023-05-25T11:50:17.226Z,16.19
2023-05-25T11:52:43.958Z,16.67
2023-05-25T11:55:13.297Z,16.51
2023-05-25T11:57:40.628Z,16.18
2023-05-25T12:00:11.275Z,16.01
2023-05-25T12:02:41.981Z,16.38
2023-05-25T12:05:11.014Z,16.36
2023-05-25T12:07:44.610Z,16.38
2023-05-25T12:10:13.407Z,16.40
2023-05-25T12:12:50.894Z,16.57
2023-05-25T12:15:25.690Z,16.41
2023-05-25T12:17:54.291Z,16.54
2023-05-25T12:20:21.812Z,17.02
2023-05-25T12:22:48.995Z,16.89
2023-05-25T12:25:19.971Z,16.80
2023-05-25T12:27:46.621Z,16.31
2023-05-25T12:30:13.454Z,16.65
2023-05-25T12:33:02.897Z,16.84
2023-05-25T12:35:43.898Z,16.79
2023-05-25T12:38:12.033Z,16.71
2023-05-25T12:40:38.699Z,16.63
2023-05-25T12:43:05.556Z,16.79
2023-05-25T12:45:32.273Z,16.81
2023-05-25T12:48:00.118Z,16.59
2023-05-25T12:50:29.410Z,16.52
2023-05-25T12:53:02.387Z,16.53
2023-05-25T12:55:34.341Z,16.84
2023-05-25T12:58:03.022Z,16.66
2023-05-25T13:00:37.624Z,16.98
2023-05-25T13:03:07.562Z,16.69
2023-05-25T13:05:36.637Z,16.76
2023-05-25T13:08:05.336Z,16.58
2023-05-25T13:10:33.221Z,16.92
2023-05-25T13:13:00.825Z,16.70
2023-05-25T13:15:28.098Z,16.96
2023-05-25T13:17:56.409Z,16.92
2023-05-25T13:20:25.406Z,16.80
2023-05-25T13:22:53.806Z,16.79
2023-05-25T13:25:22.327Z,16.58
2023-05-25T13:27:52.893Z,16.56
2023-05-25T13:30:22.827Z,16.46
2023-05-25T13:32:51.701Z,16.73
2023-05-25T13:35:23.962Z,16.75
2023-05-25T13:37:51.285Z,16.56
2023-05-25T13:40:18.412Z,16.50
2023-05-25T13:42:45.150Z,16.71
2023-05-25T13:45:11.837Z,16.51
2023-05-25T13:47:38.828Z,16.46
2023-05-25T13:50:06.214Z,16.49
2023-05-25T13:52:33.176Z,16.43
2023-05-25T13:54:59.770Z,16.68
2023-05-25T13:57:26.417Z,16.48
2023-05-25T13:59:53.037Z,16.55
2023-05-25T14:02:19.819Z,16.62
2023-05-25T14:04:46.503Z,16.54
2023-05-25T14:07:13.187Z,16.89
2023-05-25T14:09:39.894Z,16.67
2023-05-25T14:12:06.895Z,16.64
2023-05-25T14:14:33.754Z,16.74
2023-05-25T14:17:01.496Z,16.97
2023-05-25T14:19:28.456Z,16.85
2023-05-25T14:24:24.854Z,16.82
2023-05-25T14:26:51.583Z,16.89
2023-05-25T14:29:18.325Z,17.21
2023-05-25T14:31:45.094Z,17.09
2023-05-25T14:34:11.691Z,17.12
2023-05-25T14:36:38.238Z,16.88
2023-05-25T14:39:04.762Z,16.94
2023-05-25T14:41:31.362Z,17.03
2023-05-25T14:43:57.948Z,16.84
2023-05-25T14:46:24.618Z,17.19
2023-05-25T14:48:51.183Z,17.31
2023-05-25T14:51:17.853Z,17.05
2023-05-25T14:53:45.057Z,16.78
2023-05-25T14:56:11.624Z,16.81
2023-05-25T14:58:38.227Z,16.93
2023-05-25T15:01:04.993Z,17.06
2023-05-25T15:03:32.527Z,17.04
2023-05-25T15:05:59.192Z,16.97
2023-05-25T15:08:26.010Z,16.94
2023-05-25T15:10:52.748Z,17.18
2023-05-25T15:13:22.403Z,17.00
2023-05-25T15:15:52.002Z,17.22
2023-05-25T15:18:18.850Z,17.06
2023-05-25T15:20:45.592Z,17.09
2023-05-25T15:23:12.224Z,16.98
2023-05-25T15:25:38.965Z,17.21
2023-05-25T15:28:05.769Z,17.22
2023-05-25T15:30:34.141Z,16.97
2023-05-25T15:33:01.770Z,16.99
2023-05-25T15:35:32.136Z,16.98
2023-05-25T15:37:59.718Z,17.20
2023-05-25T15:40:26.838Z,16.90
2023-05-25T15:42:53.709Z,17.01
2023-05-25T15:45:20.516Z,16.85
2023-05-25T15:47:47.272Z,17.03
2023-05-25T15:50:13.988Z,16.94
2023-05-25T15:52:41.527Z,16.40
2023-05-25T15:55:08.853Z,16.87
2023-05-25T15:57:35.482Z,16.80
2023-05-25T16:00:02.398Z,16.84
2023-05-25T16:02:32.536Z,16.52
2023-05-25T16:04:59.270Z,16.65
2023-05-25T16:07:25.868Z,16.56
2023-05-25T16:09:52.545Z,16.56
2023-05-25T16:12:19.356Z,16.63
2023-05-25T16:14:46.078Z,16.35
2023-05-25T16:17:12.905Z,16.44
2023-05-25T16:19:39.560Z,16.73
2023-05-25T16:22:06.148Z,16.65
2023-05-25T16:24:32.707Z,16.68
2023-05-25T16:26:59.367Z,16.68
2023-05-25T16:29:26.275Z,16.50
2023-05-25T16:31:54.865Z,16.47
2023-05-25T16:34:22.097Z,16.19
2023-05-25T16:36:48.906Z,16.39
2023-05-25T16:39:15.592Z,16.40
2023-05-25T16:41:42.415Z,16.32
2023-05-25T16:44:11.440Z,16.72
2023-05-25T16:46:38.609Z,16.29
2023-05-25T16:49:05.861Z,16.15
2023-05-25T16:51:32.536Z,16.26
2023-05-25T16:53:59.184Z,16.23
2023-05-25T16:56:26.358Z,16.11
2023-05-25T16:58:53.095Z,16.12
2023-05-25T17:01:19.802Z,16.26
2023-05-25T17:03:46.692Z,16.09
2023-05-25T17:06:13.749Z,15.88
2023-05-25T17:08:40.376Z,16.01
2023-05-25T17:11:06.939Z,16.22
2023-05-25T17:13:33.883Z,16.31
2023-05-25T17:16:00.588Z,16.02
2023-05-25T17:18:27.181Z,15.95
2023-05-25T17:20:54.018Z,15.92
2023-05-25T17:23:21.959Z,15.94
2023-05-25T17:25:48.792Z,16.08
2023-05-25T17:28:15.352Z,15.61
2023-05-25T17:30:41.924Z,15.56
2023-05-25T17:33:08.599Z,15.90
2023-05-25T17:35:35.483Z,15.77
2023-05-25T17:38:02.091Z,15.69
2023-05-25T17:40:28.718Z,15.33
2023-05-25T17:42:55.309Z,15.51
2023-05-25T17:45:21.969Z,15.45
2023-05-25T17:47:48.655Z,15.46
2023-05-25T17:50:15.385Z,15.36
2023-05-25T17:52:42.543Z,15.35
2023-05-25T17:55:09.452Z,15.39
2023-05-25T17:57:36.366Z,15.60
2023-05-25T18:00:12.586Z,15.53
2023-05-25T18:03:23.798Z,15.22
2023-05-25T18:05:53.956Z,15.25
2023-05-25T18:08:53.051Z,15.41
2023-05-25T18:11:45.238Z,15.33
2023-05-25T18:14:24.665Z,15.43
2023-05-25T18:17:04.187Z,15.29
2023-05-25T18:19:59.170Z,15.19
2023-05-25T18:23:02.588Z,14.99
2023-05-25T18:25:42.754Z,15.22
2023-05-25T18:28:19.548Z,15.00
2023-05-25T18:30:55.430Z,14.88
2023-05-25T18:36:18.979Z,14.73
2023-05-25T18:38:59.471Z,14.75
2023-05-25T18:41:50.000Z,14.60
2023-05-25T18:44:54.484Z,14.38
2023-05-25T18:47:38.708Z,14.33
2023-05-25T18:50:57.031Z,14.14
2023-05-25T18:53:28.233Z,13.94
2023-05-25T18:56:15.574Z,13.87
2023-05-25T18:58:44.864Z,13.59
2023-05-25T19:01:39.544Z,13.59
2023-05-25T19:04:21.048Z,13.48
2023-05-25T19:07:01.603Z,13.34
2023-05-25T19:12:38.590Z,13.09
2023-05-25T19:22:54.527Z,12.76
2023-05-25T19:25:47.936Z,12.78
2023-05-25T19:28:48.500Z,12.80
2023-05-25T19:32:05.107Z,12.75
2023-05-25T19:35:47.787Z,12.50
2023-05-25T19:39:05.229Z,12.39
2023-05-25T19:41:58.003Z,12.23
2023-05-25T19:44:43.325Z,12.12
2023-05-25T19:47:21.657Z,12.01
2023-05-25T19:49:54.024Z,11.91
2023-05-25T19:52:38.352Z,11.79
2023-05-25T19:55:18.218Z,11.68
2023-05-25T20:01:28.656Z,11.63
2023-05-25T20:04:54.974Z,11.27
2023-05-25T20:08:04.548Z,11.31
2023-05-25T20:11:04.117Z,11.18
2023-05-25T20:14:02.294Z,11.04
2023-05-25T20:17:05.397Z,10.84
2023-05-25T20:20:44.601Z,11.02
2023-05-25T20:26:36.106Z,11.02
2023-05-25T20:32:53.958Z,11.06
2023-05-25T20:35:27.116Z,11.00
2023-05-25T20:38:34.097Z,10.99
2023-05-25T20:41:27.032Z,10.87
2023-05-25T20:44:43.936Z,10.83
2023-05-25T20:55:11.620Z,10.37
2023-05-25T20:58:09.447Z,10.22
2023-05-25T21:03:52.946Z,10.27
2023-05-25T21:06:58.180Z,10.27
2023-05-25T21:09:34.407Z,10.35
2023-05-25T21:12:17.105Z,10.14
2023-05-25T21:14:54.176Z,10.28
2023-05-25T21:17:40.993Z,10.40
2023-05-25T21:20:44.040Z,10.44
2023-05-25T21:24:27.244Z,10.35
2023-05-25T21:33:43.365Z,10.05
2023-05-25T21:36:25.492Z,10.07
2023-05-25T21:42:56.427Z,9.84
2023-05-25T21:49:28.541Z,9.81
2023-05-25T21:52:24.858Z,9.78
2023-05-25T21:55:12.984Z,9.79
2023-05-25T21:58:21.497Z,9.74
2023-05-25T22:00:59.344Z,9.71
2023-05-25T22:03:31.145Z,9.79
2023-05-25T22:13:28.756Z,9.73
2023-05-25T22:22:07.793Z,9.73
2023-05-25T22:23:18.698Z,9.68
2023-05-25T22:33:06.463Z,9.95
2023-05-25T22:36:13.282Z,9.95
2023-05-25T22:42:50.101Z,9.80
2023-05-25T22:46:19.561Z,9.74
2023-05-25T22:49:44.026Z,9.50
2023-05-25T22:56:36.550Z,9.50
2023-05-25T23:04:49.062Z,9.26
2023-05-25T23:10:23.575Z,9.00
2023-05-25T23:21:00.984Z,8.50
2023-05-25T23:24:11.846Z,8.62
2023-05-25T23:31:16.998Z,8.49
2023-05-25T23:44:45.168Z,8.27
